createdAt,value
2017-09-04T00:00:13.739Z,940.43
2017-09-04T00:00:41.850Z,940.43
2017-09-04T00:01:09.956Z,940.44
2017-09-04T00:01:37.870Z,940.42
2017-09-04T00:02:05.697Z,940.44
2017-09-04T00:02:33.716Z,940.41
2017-09-04T00:03:01.631Z,940.45
2017-09-04T00:03:29.741Z,940.43
2017-09-04T00:03:57.742Z,940.47
2017-09-04T00:04:25.629Z,940.45
2017-09-04T00:04:53.536Z,940.41
2017-09-04T00:05:21.559Z,940.42
2017-09-04T00:05:49.679Z,940.42
2017-09-04T00:06:17.757Z,940.45
2017-09-04T00:06:45.879Z,940.43
2017-09-04T00:07:13.946Z,940.42
2017-09-04T00:07:42.044Z,940.45
2017-09-04T00:08:10.159Z,940.43
2017-09-04T00:08:38.253Z,940.45
2017-09-04T00:09:06.383Z,940.41
2017-09-04T00:09:34.383Z,940.42
2017-09-04T00:10:02.392Z,940.44
2017-09-04T00:10:30.511Z,940.43
2017-09-04T00:10:58.502Z,940.43
2017-09-04T00:11:26.423Z,940.42
2017-09-04T00:11:54.431Z,940.41
2017-09-04T00:12:22.529Z,940.42
2017-09-04T00:12:50.400Z,940.45
2017-09-04T00:13:18.403Z,940.39
2017-09-04T00:13:46.503Z,940.45
2017-09-04T00:14:14.626Z,940.4
2017-09-04T00:14:42.717Z,940.43
2017-09-04T00:15:10.514Z,940.39
2017-09-04T00:15:38.438Z,940.42
2017-09-04T00:16:06.562Z,940.41
2017-09-04T00:16:34.547Z,940.42
2017-09-04T00:17:02.660Z,940.43
2017-09-04T00:17:30.677Z,940.42
2017-09-04T00:17:58.694Z,940.38
2017-09-04T00:18:26.597Z,940.44
2017-09-04T00:18:54.500Z,940.41
2017-09-04T00:19:22.592Z,940.45
2017-09-04T00:19:50.700Z,940.44
2017-09-04T00:20:18.639Z,940.44
2017-09-04T00:20:46.584Z,940.43
2017-09-04T00:21:14.680Z,940.43
2017-09-04T00:21:42.688Z,940.45
2017-09-04T00:22:10.899Z,940.46
2017-09-04T00:22:38.814Z,940.44
2017-09-04T00:23:06.914Z,940.44
2017-09-04T00:23:34.931Z,940.44
2017-09-04T00:24:45.537Z,940.43
2017-09-04T00:25:13.553Z,940.43
2017-09-04T00:25:41.569Z,940.44
2017-09-04T00:26:09.687Z,940.42
2017-09-04T00:26:37.693Z,940.43
2017-09-04T00:27:05.908Z,940.43
2017-09-04T00:27:33.914Z,940.47
2017-09-04T00:28:01.961Z,940.46
2017-09-04T00:28:29.838Z,940.46
2017-09-04T00:28:57.832Z,940.44
2017-09-04T00:29:25.967Z,940.49
2017-09-04T00:29:53.970Z,940.43
2017-09-04T00:30:22.698Z,940.46
2017-09-04T00:30:50.847Z,940.42
2017-09-04T00:31:20.923Z,940.44
2017-09-04T00:31:49.621Z,940.47
2017-09-04T00:32:17.750Z,940.43
2017-09-04T00:32:45.814Z,940.44
2017-09-04T00:33:14.917Z,940.4
2017-09-04T00:33:42.987Z,940.48
2017-09-04T00:34:11.020Z,940.46
2017-09-04T00:34:38.849Z,940.44
2017-09-04T00:35:06.954Z,940.46
2017-09-04T00:35:35.092Z,940.46
2017-09-04T00:36:03.236Z,940.46
2017-09-04T00:36:31.246Z,940.49
2017-09-04T00:36:59.253Z,940.43
2017-09-04T00:37:27.253Z,940.43
2017-09-04T00:37:55.062Z,940.48
2017-09-04T00:38:22.942Z,940.45
2017-09-04T00:38:50.850Z,940.48
2017-09-04T00:39:18.854Z,940.49
2017-09-04T00:39:46.861Z,940.46
2017-09-04T00:40:14.987Z,940.45
2017-09-04T00:40:42.908Z,940.46
2017-09-04T00:41:10.920Z,940.45
2017-09-04T00:41:38.954Z,940.46
2017-09-04T00:42:07.199Z,940.49
2017-09-04T00:42:35.307Z,940.46
2017-09-04T00:43:03.307Z,940.46
2017-09-04T00:43:31.422Z,940.45
2017-09-04T00:43:59.531Z,940.44
2017-09-04T00:44:27.533Z,940.45
2017-09-04T00:44:55.346Z,940.45
2017-09-04T00:45:23.471Z,940.49
2017-09-04T00:45:51.380Z,940.48
2017-09-04T00:46:19.498Z,940.47
2017-09-04T00:46:47.398Z,940.44
2017-09-04T00:47:15.524Z,940.46
2017-09-04T00:47:43.528Z,940.45
2017-09-04T00:48:11.658Z,940.46
2017-09-04T00:48:39.682Z,940.44
2017-09-04T00:49:07.784Z,940.43
2017-09-04T00:49:35.780Z,940.43
2017-09-04T00:50:03.784Z,940.45
2017-09-04T00:50:31.909Z,940.43
2017-09-04T00:50:59.899Z,940.42
2017-09-04T00:51:27.792Z,940.44
2017-09-04T00:51:55.688Z,940.44
2017-09-04T00:52:23.781Z,940.42
2017-09-04T00:52:51.687Z,940.41
2017-09-04T00:53:19.692Z,940.44
2017-09-04T00:53:47.808Z,940.44
2017-09-04T00:54:15.817Z,940.45
2017-09-04T00:54:43.832Z,940.45
2017-09-04T00:55:11.954Z,940.42
2017-09-04T00:55:40.030Z,940.42
2017-09-04T00:56:08.040Z,940.41
2017-09-04T00:56:36.138Z,940.42
2017-09-04T00:57:04.128Z,940.43
2017-09-04T00:57:32.601Z,940.42
2017-09-04T00:58:00.483Z,940.44
2017-09-04T00:58:28.584Z,940.42
2017-09-04T00:58:56.576Z,940.41
2017-09-04T00:59:24.460Z,940.41
2017-09-04T00:59:52.365Z,940.4
2017-09-04T01:00:20.377Z,940.44
2017-09-04T01:00:48.485Z,940.41
2017-09-04T01:01:16.300Z,940.43
2017-09-04T01:01:44.392Z,940.43
2017-09-04T01:02:12.503Z,940.42
2017-09-04T01:02:40.522Z,940.41
2017-09-04T01:03:08.428Z,940.4
2017-09-04T01:03:36.351Z,940.38
2017-09-04T01:04:04.475Z,940.35
2017-09-04T01:04:32.486Z,940.39
2017-09-04T01:05:00.376Z,940.4
2017-09-04T01:05:28.388Z,940.36
2017-09-04T01:05:56.518Z,940.36
2017-09-04T01:06:24.497Z,940.37
2017-09-04T01:06:52.509Z,940.36
2017-09-04T01:07:20.542Z,940.36
2017-09-04T01:07:48.565Z,940.36
2017-09-04T01:08:16.460Z,940.38
2017-09-04T01:08:44.379Z,940.4
2017-09-04T01:09:12.185Z,940.39
2017-09-04T01:12:27.302Z,940.38
2017-09-04T01:12:55.430Z,940.37
2017-09-04T01:13:23.478Z,940.34
2017-09-04T01:13:51.432Z,940.34
2017-09-04T01:14:19.490Z,940.33
2017-09-04T01:14:47.630Z,940.33
2017-09-04T01:15:15.656Z,940.33
2017-09-04T01:15:43.778Z,940.33
2017-09-04T01:16:11.906Z,940.33
2017-09-04T01:16:39.921Z,940.33
2017-09-04T01:17:08.032Z,940.3
2017-09-04T01:17:36.157Z,940.32
2017-09-04T01:18:04.196Z,940.31
2017-09-04T01:18:32.202Z,940.29
2017-09-04T01:19:00.006Z,940.29
2017-09-04T01:19:28.102Z,940.26
2017-09-04T01:19:56.131Z,940.25
2017-09-04T01:20:24.276Z,940.27
2017-09-04T01:20:52.305Z,940.25
2017-09-04T01:21:20.330Z,940.26
2017-09-04T01:21:48.465Z,940.24
2017-09-04T01:22:16.482Z,940.26
2017-09-04T01:22:44.609Z,940.26
2017-09-04T01:23:12.641Z,940.21
2017-09-04T01:23:40.670Z,940.22
2017-09-04T01:24:08.680Z,940.26
2017-09-04T01:24:36.812Z,940.26
2017-09-04T01:25:04.833Z,940.25
2017-09-04T01:25:32.858Z,940.24
2017-09-04T01:26:00.670Z,940.24
2017-09-04T01:26:28.685Z,940.25
2017-09-04T01:26:56.702Z,940.23
2017-09-04T01:27:24.865Z,940.28
2017-09-04T01:27:53.004Z,940.26
2017-09-04T01:28:21.032Z,940.26
2017-09-04T01:28:49.059Z,940.23
2017-09-04T01:29:16.952Z,940.25
2017-09-04T01:29:44.996Z,940.24
2017-09-04T01:30:13.000Z,940.24
2017-09-04T01:30:41.108Z,940.25
2017-09-04T01:31:09.222Z,940.27
2017-09-04T01:31:37.148Z,940.3
2017-09-04T01:32:05.271Z,940.28
2017-09-04T01:32:33.285Z,940.27
2017-09-04T01:33:01.323Z,940.26
2017-09-04T01:33:29.447Z,940.28
2017-09-04T01:33:57.577Z,940.28
2017-09-04T01:34:25.609Z,940.3
2017-09-04T01:34:53.741Z,940.28
2017-09-04T01:35:21.671Z,940.26
2017-09-04T01:35:49.681Z,940.29
2017-09-04T01:36:17.620Z,940.26
2017-09-04T01:36:45.638Z,940.29
2017-09-04T01:37:13.751Z,940.29
2017-09-04T01:37:41.902Z,940.3
2017-09-04T01:38:09.812Z,940.28
2017-09-04T01:38:37.931Z,940.25
2017-09-04T01:39:06.069Z,940.24
2017-09-04T01:39:34.216Z,940.28
2017-09-04T01:40:02.170Z,940.29
2017-09-04T01:40:30.275Z,940.28
2017-09-04T01:40:58.415Z,940.29
2017-09-04T01:41:26.547Z,940.29
2017-09-04T01:41:54.573Z,940.23
2017-09-04T01:42:22.559Z,940.22
2017-09-04T01:42:50.910Z,940.26
2017-09-04T01:43:18.933Z,940.26
2017-09-04T01:43:46.952Z,940.25
2017-09-04T01:44:15.073Z,940.27
2017-09-04T01:44:43.000Z,940.3
2017-09-04T01:45:11.030Z,940.26
2017-09-04T01:45:38.936Z,940.3
2017-09-04T01:46:06.848Z,940.27
2017-09-04T01:46:34.853Z,940.25
2017-09-04T01:47:02.666Z,940.26
2017-09-04T01:47:30.694Z,940.25
2017-09-04T01:47:58.907Z,940.23
2017-09-04T01:48:26.917Z,940.27
2017-09-04T01:48:55.041Z,940.25
2017-09-04T01:49:22.971Z,940.29
2017-09-04T01:49:50.896Z,940.28
2017-09-04T01:50:18.823Z,940.28
2017-09-04T01:50:46.848Z,940.29
2017-09-04T01:51:14.956Z,940.35
2017-09-04T01:51:43.094Z,940.34
2017-09-04T01:52:10.811Z,940.3
2017-09-04T01:52:39.045Z,940.31
2017-09-04T01:53:07.065Z,940.31
2017-09-04T01:53:35.190Z,940.37
2017-09-04T01:54:03.107Z,940.35
2017-09-04T01:54:31.213Z,940.33
2017-09-04T01:54:59.227Z,940.31
2017-09-04T01:55:27.368Z,940.35
2017-09-04T01:55:55.499Z,940.36
2017-09-04T01:56:23.537Z,940.32
2017-09-04T01:56:51.661Z,940.36
2017-09-04T01:57:19.800Z,940.34
2017-09-04T01:57:47.922Z,940.38
2017-09-04T01:58:15.827Z,940.43
2017-09-04T01:58:43.953Z,940.4
2017-09-04T01:59:11.995Z,940.4
2017-09-04T01:59:40.087Z,940.43
2017-09-04T02:00:08.089Z,940.45
2017-09-04T02:00:36.115Z,940.45
2017-09-04T02:01:04.045Z,940.44
2017-09-04T02:01:32.221Z,940.4
2017-09-04T02:02:00.143Z,940.38
2017-09-04T02:02:28.151Z,940.44
2017-09-04T02:02:56.293Z,940.38
2017-09-04T02:03:24.321Z,940.44
2017-09-04T02:03:52.233Z,940.42
2017-09-04T02:04:20.233Z,940.42
2017-09-04T02:04:48.354Z,940.43
2017-09-04T02:05:16.483Z,940.38
2017-09-04T02:05:44.404Z,940.44
2017-09-04T02:06:12.416Z,940.41
2017-09-04T02:06:40.328Z,940.43
2017-09-04T02:07:08.352Z,940.41
2017-09-04T02:07:36.268Z,940.41
2017-09-04T02:08:04.455Z,940.39
2017-09-04T02:08:32.591Z,940.37
2017-09-04T02:09:00.625Z,940.41
2017-09-04T02:09:28.647Z,940.4
2017-09-04T02:09:56.665Z,940.39
2017-09-04T02:10:24.681Z,940.41
2017-09-04T02:10:52.871Z,940.38
2017-09-04T02:11:20.842Z,940.4
2017-09-04T02:11:48.870Z,940.42
2017-09-04T02:12:17.006Z,940.42
2017-09-04T02:12:45.148Z,940.4
2017-09-04T02:13:13.171Z,940.42
2017-09-04T02:13:40.997Z,940.41
2017-09-04T02:14:09.019Z,940.41
2017-09-04T02:14:37.143Z,940.42
2017-09-04T02:15:05.146Z,940.41
2017-09-04T02:15:32.985Z,940.43
2017-09-04T02:16:00.999Z,940.42
2017-09-04T02:16:28.907Z,940.42
2017-09-04T02:16:56.814Z,940.43
2017-09-04T02:17:24.922Z,940.4
2017-09-04T02:17:53.142Z,940.42
2017-09-04T02:18:21.284Z,940.41
2017-09-04T02:18:49.281Z,940.43
2017-09-04T02:19:17.296Z,940.41
2017-09-04T02:19:45.215Z,940.44
2017-09-04T02:20:13.244Z,940.4
2017-09-04T02:20:41.246Z,940.44
2017-09-04T02:21:09.375Z,940.42
2017-09-04T02:21:37.383Z,940.39
2017-09-04T02:22:05.298Z,940.4
2017-09-04T02:22:33.324Z,940.39
2017-09-04T02:23:01.443Z,940.39
2017-09-04T02:23:29.383Z,940.41
2017-09-04T02:23:57.466Z,940.4
2017-09-04T02:24:25.521Z,940.38
2017-09-04T02:24:53.523Z,940.38
2017-09-04T02:25:21.454Z,940.39
2017-09-04T02:25:49.479Z,940.38
2017-09-04T02:26:17.412Z,940.4
2017-09-04T02:26:45.335Z,940.39
2017-09-04T02:27:13.459Z,940.41
2017-09-04T02:27:41.462Z,940.39
2017-09-04T02:28:09.672Z,940.37
2017-09-04T02:28:37.801Z,940.35
2017-09-04T02:29:05.804Z,940.35
2017-09-04T02:29:33.926Z,940.34
2017-09-04T02:30:02.064Z,940.35
2017-09-04T02:30:30.079Z,940.36
2017-09-04T02:30:58.202Z,940.39
2017-09-04T02:31:26.025Z,940.33
2017-09-04T02:31:54.152Z,940.35
2017-09-04T02:32:22.153Z,940.36
2017-09-04T02:32:50.138Z,940.34
2017-09-04T02:33:18.155Z,940.34
2017-09-04T02:33:45.953Z,940.33
2017-09-04T02:34:14.071Z,940.32
2017-09-04T02:34:42.127Z,940.33
2017-09-04T02:35:10.255Z,940.32
2017-09-04T02:35:39.042Z,940.33
2017-09-04T02:36:07.088Z,940.34
2017-09-04T02:36:35.107Z,940.33
2017-09-04T02:37:03.038Z,940.33
2017-09-04T02:37:31.051Z,940.31
2017-09-04T02:37:58.959Z,940.33
2017-09-04T02:38:26.891Z,940.31
2017-09-04T02:38:54.797Z,940.34
2017-09-04T02:39:22.844Z,940.32
2017-09-04T02:39:50.854Z,940.31
2017-09-04T02:40:18.766Z,940.31
2017-09-04T02:40:47.989Z,940.32
2017-09-04T02:41:16.255Z,940.31
2017-09-04T02:41:44.183Z,940.26
2017-09-04T02:42:12.212Z,940.3
2017-09-04T02:42:40.240Z,940.27
2017-09-04T02:43:08.251Z,940.27
2017-09-04T02:43:36.354Z,940.29
2017-09-04T02:44:04.172Z,940.25
2017-09-04T02:44:32.301Z,940.29
2017-09-04T02:45:00.328Z,940.28
2017-09-04T02:45:28.473Z,940.26
2017-09-04T02:45:56.492Z,940.24
2017-09-04T02:46:24.530Z,940.3
2017-09-04T02:46:52.446Z,940.26
2017-09-04T02:47:20.466Z,940.28
2017-09-04T02:47:48.689Z,940.24
2017-09-04T02:48:16.716Z,940.24
2017-09-04T02:48:44.825Z,940.23
2017-09-04T02:49:12.983Z,940.2
2017-09-04T02:49:41.014Z,940.27
2017-09-04T02:50:09.019Z,940.3
2017-09-04T02:50:37.141Z,940.3
2017-09-04T02:51:04.957Z,940.25
2017-09-04T02:51:33.077Z,940.27
2017-09-04T02:52:00.998Z,940.29
2017-09-04T02:52:28.921Z,940.25
2017-09-04T02:52:57.053Z,940.25
2017-09-04T02:53:25.071Z,940.27
2017-09-04T02:53:53.191Z,940.25
2017-09-04T02:54:21.318Z,940.24
2017-09-04T02:54:49.429Z,940.21
2017-09-04T02:55:17.485Z,940.24
2017-09-04T02:55:45.481Z,940.23
2017-09-04T02:56:13.515Z,940.19
2017-09-04T02:56:41.445Z,940.22
2017-09-04T02:57:09.459Z,940.17
2017-09-04T02:57:37.486Z,940.19
2017-09-04T02:58:05.431Z,940.21
2017-09-04T02:58:33.341Z,940.22
2017-09-04T02:59:01.273Z,940.23
2017-09-04T02:59:29.316Z,940.22
2017-09-04T02:59:57.319Z,940.18
2017-09-04T03:00:25.415Z,940.21
2017-09-04T03:00:53.340Z,940.21
2017-09-04T03:01:21.491Z,940.2
2017-09-04T03:01:49.540Z,940.2
2017-09-04T03:02:17.576Z,940.21
2017-09-04T03:02:45.710Z,940.2
2017-09-04T03:03:13.835Z,940.21
2017-09-04T03:03:41.871Z,940.21
2017-09-04T03:04:09.886Z,940.2
2017-09-04T03:04:37.926Z,940.18
2017-09-04T03:05:05.944Z,940.21
2017-09-04T03:05:33.877Z,940.16
2017-09-04T03:06:01.801Z,940.16
2017-09-04T03:06:29.688Z,940.13
2017-09-04T03:06:57.624Z,940.19
2017-09-04T03:07:25.567Z,940.2
2017-09-04T03:07:53.567Z,940.2
2017-09-04T03:08:21.742Z,940.21
2017-09-04T03:08:49.768Z,940.18
2017-09-04T03:09:17.886Z,940.19
2017-09-04T03:09:45.816Z,940.17
2017-09-04T03:10:13.656Z,940.14
2017-09-04T03:10:41.754Z,940.19
2017-09-04T03:11:09.890Z,940.19
2017-09-04T03:11:37.994Z,940.15
2017-09-04T03:12:06.107Z,940.16
2017-09-04T03:12:34.223Z,940.16
2017-09-04T03:13:02.242Z,940.13
2017-09-04T03:13:30.373Z,940.15
2017-09-04T03:13:58.391Z,940.1
2017-09-04T03:14:26.393Z,940.15
2017-09-04T03:14:54.413Z,940.15
2017-09-04T03:15:22.224Z,940.16
2017-09-04T03:15:50.013Z,940.1
2017-09-04T03:16:18.058Z,940.11
2017-09-04T03:16:45.970Z,940.12
2017-09-04T03:17:13.988Z,940.11
2017-09-04T03:17:42.879Z,940.1
2017-09-04T03:18:10.979Z,940.11
2017-09-04T03:18:38.984Z,940.13
2017-09-04T03:19:07.105Z,940.13
2017-09-04T03:19:35.211Z,940.11
2017-09-04T03:20:03.354Z,940.08
2017-09-04T03:20:31.388Z,940.13
2017-09-04T03:20:59.420Z,940.08
2017-09-04T03:21:27.435Z,940.12
2017-09-04T03:21:55.455Z,940.11
2017-09-04T03:22:23.372Z,940.1
2017-09-04T03:22:51.286Z,940.08
2017-09-04T03:23:19.516Z,940.05
2017-09-04T03:23:47.524Z,940.05
2017-09-04T03:24:15.545Z,940.07
2017-09-04T03:24:43.660Z,940.04
2017-09-04T03:25:11.580Z,940.05
2017-09-04T03:25:39.704Z,940.06
2017-09-04T03:26:07.582Z,940.04
2017-09-04T03:26:35.524Z,940.03
2017-09-04T03:27:03.646Z,940.06
2017-09-04T03:27:31.691Z,940.04
2017-09-04T03:27:59.589Z,940.03
2017-09-04T03:28:27.704Z,940.02
2017-09-04T03:28:55.714Z,940.03
2017-09-04T03:29:23.730Z,940.04
2017-09-04T03:29:51.656Z,940.06
2017-09-04T03:30:19.783Z,940.03
2017-09-04T03:30:47.900Z,940.04
2017-09-04T03:31:15.994Z,940.05
2017-09-04T03:31:44.123Z,940.02
2017-09-04T03:32:12.158Z,940.01
2017-09-04T03:32:40.180Z,940.01
2017-09-04T03:33:08.087Z,940.02
2017-09-04T03:33:36.110Z,940.02
2017-09-04T03:34:04.038Z,940.02
2017-09-04T03:34:32.082Z,940.04
2017-09-04T03:35:00.225Z,940.03
2017-09-04T03:35:28.257Z,939.99
2017-09-04T03:35:56.380Z,940.04
2017-09-04T03:36:24.278Z,940.02
2017-09-04T03:36:52.111Z,940.06
2017-09-04T03:37:20.252Z,940.05
2017-09-04T03:37:48.311Z,940.03
2017-09-04T03:38:16.423Z,940.02
2017-09-04T03:38:44.587Z,940.03
2017-09-04T03:39:12.617Z,940.04
2017-09-04T03:39:40.651Z,940.04
2017-09-04T03:40:08.582Z,940.01
2017-09-04T03:40:36.500Z,940.02
2017-09-04T03:41:04.510Z,940.04
2017-09-04T03:41:32.621Z,940.02
2017-09-04T03:42:00.746Z,940.02
2017-09-04T03:42:28.852Z,940.03
2017-09-04T03:42:56.880Z,940.03
2017-09-04T03:43:24.912Z,940.02
2017-09-04T03:43:52.918Z,940
2017-09-04T03:44:21.024Z,940.04
2017-09-04T03:44:49.171Z,940.02
2017-09-04T03:45:17.300Z,940
2017-09-04T03:45:45.200Z,940.01
2017-09-04T03:46:13.211Z,940.05
2017-09-04T03:46:41.210Z,940.02
2017-09-04T03:47:09.123Z,940.01
2017-09-04T03:47:37.041Z,940.01
2017-09-04T03:48:05.059Z,939.99
2017-09-04T03:48:32.969Z,939.96
2017-09-04T03:49:01.018Z,939.99
2017-09-04T03:49:29.052Z,939.95
2017-09-04T03:49:57.066Z,939.96
2017-09-04T03:50:24.874Z,940.01
2017-09-04T03:50:52.999Z,940
2017-09-04T03:51:20.941Z,939.96
2017-09-04T03:51:48.941Z,940.01
2017-09-04T03:52:17.049Z,940
2017-09-04T03:52:45.055Z,939.94
2017-09-04T03:53:13.276Z,939.95
2017-09-04T03:53:41.393Z,939.95
2017-09-04T03:54:09.521Z,939.96
2017-09-04T03:54:37.554Z,939.95
2017-09-04T03:55:05.564Z,939.96
2017-09-04T03:55:33.595Z,939.97
2017-09-04T03:56:01.717Z,939.9
2017-09-04T03:56:29.555Z,939.92
2017-09-04T03:56:57.460Z,939.96
2017-09-04T03:57:25.551Z,939.92
2017-09-04T03:57:53.539Z,939.89
2017-09-04T03:58:21.581Z,939.91
2017-09-04T03:58:49.524Z,939.92
2017-09-04T03:59:17.537Z,939.91
2017-09-04T03:59:45.468Z,939.88
2017-09-04T04:00:13.502Z,939.89
2017-09-04T04:00:41.439Z,939.92
2017-09-04T04:01:09.555Z,939.9
2017-09-04T04:01:37.684Z,939.9
2017-09-04T04:02:05.688Z,939.88
2017-09-04T04:02:33.805Z,939.96
2017-09-04T04:03:01.928Z,939.93
2017-09-04T04:03:29.960Z,939.93
2017-09-04T04:03:57.858Z,939.88
2017-09-04T04:04:25.691Z,939.9
2017-09-04T04:04:53.813Z,939.89
2017-09-04T04:05:22.052Z,939.91
2017-09-04T04:05:50.393Z,939.8
2017-09-04T04:06:19.040Z,939.91
2017-09-04T04:06:47.080Z,939.88
2017-09-04T04:07:15.169Z,939.89
2017-09-04T04:07:43.200Z,939.89
2017-09-04T04:08:11.217Z,939.88
2017-09-04T04:08:39.231Z,939.87
2017-09-04T04:09:07.349Z,939.89
2017-09-04T04:09:35.517Z,939.91
2017-09-04T04:10:03.441Z,939.88
2017-09-04T04:10:31.775Z,939.87
2017-09-04T04:10:59.708Z,939.86
2017-09-04T04:11:27.839Z,939.87
2017-09-04T04:11:55.937Z,939.88
2017-09-04T04:12:23.968Z,939.87
2017-09-04T04:12:52.026Z,939.85
2017-09-04T04:13:20.245Z,939.81
2017-09-04T04:13:48.345Z,939.85
2017-09-04T04:14:16.465Z,939.87
2017-09-04T04:14:44.589Z,939.81
2017-09-04T04:15:12.618Z,939.84
2017-09-04T04:15:40.724Z,939.82
2017-09-04T04:16:08.752Z,939.79
2017-09-04T04:16:36.779Z,939.89
2017-09-04T04:17:04.897Z,939.82
2017-09-04T04:17:32.918Z,939.81
2017-09-04T04:18:00.930Z,939.9
2017-09-04T04:18:29.032Z,939.81
2017-09-04T04:18:57.049Z,939.87
2017-09-04T04:19:25.184Z,939.81
2017-09-04T04:19:53.205Z,939.82
2017-09-04T04:20:21.316Z,939.86
2017-09-04T04:20:49.374Z,939.82
2017-09-04T04:21:17.285Z,939.82
2017-09-04T04:21:45.227Z,939.79
2017-09-04T04:22:13.362Z,939.84
2017-09-04T04:22:41.392Z,939.87
2017-09-04T04:23:09.726Z,939.81
2017-09-04T04:23:37.746Z,939.86
2017-09-04T04:24:05.718Z,939.85
2017-09-04T04:24:33.751Z,939.87
2017-09-04T04:25:01.785Z,939.91
2017-09-04T04:25:29.936Z,939.84
2017-09-04T04:25:57.876Z,939.88
2017-09-04T04:26:26.006Z,939.89
2017-09-04T04:26:54.115Z,939.83
2017-09-04T04:27:22.039Z,939.89
2017-09-04T04:27:50.077Z,939.86
2017-09-04T04:28:18.299Z,939.86
2017-09-04T04:28:46.211Z,939.79
2017-09-04T04:29:14.258Z,939.81
2017-09-04T04:29:42.099Z,939.84
2017-09-04T04:30:10.083Z,939.86
2017-09-04T04:30:38.105Z,939.82
2017-09-04T04:31:06.139Z,939.85
2017-09-04T04:31:34.281Z,939.86
2017-09-04T04:32:02.424Z,939.85
2017-09-04T04:32:30.350Z,939.82
2017-09-04T04:32:58.496Z,939.85
2017-09-04T04:33:26.524Z,939.84
2017-09-04T04:33:54.633Z,939.85
2017-09-04T04:34:22.766Z,939.82
2017-09-04T04:34:50.679Z,939.81
2017-09-04T04:35:18.797Z,939.87
2017-09-04T04:35:46.694Z,939.89
2017-09-04T04:36:14.779Z,939.92
2017-09-04T04:36:42.920Z,939.89
2017-09-04T04:37:11.045Z,939.92
2017-09-04T04:37:38.964Z,939.89
2017-09-04T04:38:07.069Z,939.89
2017-09-04T04:38:35.084Z,939.93
2017-09-04T04:39:03.200Z,939.9
2017-09-04T04:39:31.327Z,939.88
2017-09-04T04:39:59.331Z,939.91
2017-09-04T04:40:27.361Z,939.88
2017-09-04T04:40:55.283Z,939.86
2017-09-04T04:41:23.318Z,939.9
2017-09-04T04:41:51.324Z,939.9
2017-09-04T04:42:19.339Z,939.87
2017-09-04T04:42:47.368Z,939.91
2017-09-04T04:43:15.532Z,939.91
2017-09-04T04:43:43.560Z,939.84
2017-09-04T04:44:11.464Z,939.86
2017-09-04T04:44:39.405Z,939.87
2017-09-04T04:45:07.402Z,939.88
2017-09-04T04:45:35.311Z,939.83
2017-09-04T04:46:03.335Z,939.84
2017-09-04T04:46:31.476Z,939.84
2017-09-04T04:46:59.480Z,939.82
2017-09-04T04:47:27.512Z,939.79
2017-09-04T04:47:55.637Z,939.82
2017-09-04T04:48:23.650Z,939.79
2017-09-04T04:48:51.668Z,939.8
2017-09-04T04:49:19.711Z,939.8
2017-09-04T04:49:47.831Z,939.76
2017-09-04T04:50:15.653Z,939.76
2017-09-04T04:50:43.628Z,939.74
2017-09-04T04:51:11.736Z,939.75
2017-09-04T04:51:39.773Z,939.72
2017-09-04T04:52:07.926Z,939.7
2017-09-04T04:52:35.958Z,939.72
2017-09-04T04:53:03.988Z,939.68
2017-09-04T04:53:32.333Z,939.69
2017-09-04T04:54:00.322Z,939.68
2017-09-04T04:54:28.215Z,939.69
2017-09-04T04:54:56.269Z,939.69
2017-09-04T04:55:24.291Z,939.67
2017-09-04T04:55:52.395Z,939.65
2017-09-04T04:56:20.405Z,939.67
2017-09-04T04:56:48.434Z,939.69
2017-09-04T04:57:16.342Z,939.65
2017-09-04T04:57:44.344Z,939.64
2017-09-04T04:58:12.468Z,939.62
2017-09-04T04:58:40.604Z,939.6
2017-09-04T04:59:08.614Z,939.63
2017-09-04T04:59:36.628Z,939.63
2017-09-04T05:00:05.661Z,939.59
2017-09-04T05:00:33.685Z,939.58
2017-09-04T05:01:01.827Z,939.61
2017-09-04T05:01:29.937Z,939.6
2017-09-04T05:01:57.819Z,939.58
2017-09-04T05:02:25.859Z,939.59
2017-09-04T05:02:53.881Z,939.58
2017-09-04T05:03:21.924Z,939.58
2017-09-04T05:03:49.659Z,939.57
2017-09-04T05:04:17.767Z,939.56
2017-09-04T05:04:45.690Z,939.54
2017-09-04T05:05:13.507Z,939.51
2017-09-04T05:05:41.645Z,939.5
2017-09-04T05:06:09.725Z,939.49
2017-09-04T05:06:37.851Z,939.53
2017-09-04T05:07:05.873Z,939.51
2017-09-04T05:07:33.698Z,939.5
2017-09-04T05:08:01.643Z,939.5
2017-09-04T05:08:29.972Z,939.49
2017-09-04T05:08:58.122Z,939.48
2017-09-04T05:09:25.931Z,939.53
2017-09-04T05:09:53.938Z,939.5
2017-09-04T05:10:22.032Z,939.49
2017-09-04T05:10:50.157Z,939.47
2017-09-04T05:11:18.267Z,939.48
2017-09-04T05:11:46.273Z,939.47
2017-09-04T05:12:14.298Z,939.46
2017-09-04T05:12:42.108Z,939.46
2017-09-04T05:13:10.038Z,939.43
2017-09-04T05:13:38.253Z,939.44
2017-09-04T05:14:06.394Z,939.42
2017-09-04T05:14:34.628Z,939.42
2017-09-04T05:15:02.556Z,939.42
2017-09-04T05:15:30.572Z,939.44
2017-09-04T05:15:58.512Z,939.45
2017-09-04T05:16:26.430Z,939.47
2017-09-04T05:16:54.465Z,939.46
2017-09-04T05:17:22.512Z,939.42
2017-09-04T05:17:50.640Z,939.38
2017-09-04T05:18:18.774Z,939.38
2017-09-04T05:18:46.699Z,939.38
2017-09-04T05:19:14.704Z,939.4
2017-09-04T05:19:42.726Z,939.38
2017-09-04T05:20:10.717Z,939.35
2017-09-04T05:20:38.746Z,939.38
2017-09-04T05:21:06.658Z,939.38
2017-09-04T05:21:34.798Z,939.36
2017-09-04T05:22:02.920Z,939.36
2017-09-04T05:22:30.942Z,939.38
2017-09-04T05:22:58.992Z,939.34
2017-09-04T05:23:27.004Z,939.36
2017-09-04T05:23:55.479Z,939.35
2017-09-04T05:24:23.517Z,939.32
2017-09-04T05:24:51.512Z,939.38
2017-09-04T05:25:19.412Z,939.34
2017-09-04T05:25:47.421Z,939.33
2017-09-04T05:26:15.438Z,939.35
2017-09-04T05:26:43.365Z,939.28
2017-09-04T05:27:11.291Z,939.34
2017-09-04T05:27:39.289Z,939.33
2017-09-04T05:28:07.211Z,939.31
2017-09-04T05:28:35.233Z,939.34
2017-09-04T05:29:03.365Z,939.32
2017-09-04T05:29:31.265Z,939.35
2017-09-04T05:29:59.216Z,939.33
2017-09-04T05:30:27.365Z,939.38
2017-09-04T05:30:55.389Z,939.31
2017-09-04T05:31:23.501Z,939.36
2017-09-04T05:31:51.423Z,939.33
2017-09-04T05:32:19.436Z,939.39
2017-09-04T05:32:47.561Z,939.34
2017-09-04T05:33:15.572Z,939.37
2017-09-04T05:33:43.698Z,939.38
2017-09-04T05:34:11.615Z,939.35
2017-09-04T05:34:39.608Z,939.36
2017-09-04T05:35:07.630Z,939.38
2017-09-04T05:35:35.633Z,939.37
2017-09-04T05:36:03.763Z,939.4
2017-09-04T05:36:31.916Z,939.37
2017-09-04T05:36:59.834Z,939.36
2017-09-04T05:37:27.942Z,939.38
2017-09-04T05:37:55.939Z,939.35
2017-09-04T05:38:24.071Z,939.31
2017-09-04T05:38:52.368Z,939.34
2017-09-04T05:39:20.509Z,939.31
2017-09-04T05:39:48.523Z,939.27
2017-09-04T05:40:16.421Z,939.31
2017-09-04T05:40:44.473Z,939.26
2017-09-04T05:41:12.475Z,939.28
2017-09-04T05:41:40.581Z,939.29
2017-09-04T05:42:08.586Z,939.27
2017-09-04T05:42:36.706Z,939.24
2017-09-04T05:43:04.713Z,939.25
2017-09-04T05:43:32.824Z,939.27
2017-09-04T05:44:01.100Z,939.26
2017-09-04T05:44:29.114Z,939.28
2017-09-04T05:44:57.133Z,939.23
2017-09-04T05:45:25.150Z,939.28
2017-09-04T05:45:53.175Z,939.27
2017-09-04T05:46:21.210Z,939.27
2017-09-04T05:46:49.335Z,939.27
2017-09-04T05:47:17.248Z,939.27
2017-09-04T05:47:45.272Z,939.27
2017-09-04T05:48:13.400Z,939.3
2017-09-04T05:48:41.507Z,939.3
2017-09-04T05:49:09.523Z,939.27
2017-09-04T05:49:37.552Z,939.28
2017-09-04T05:50:05.569Z,939.27
2017-09-04T05:50:33.694Z,939.25
2017-09-04T05:51:01.719Z,939.28
2017-09-04T05:51:29.678Z,939.24
2017-09-04T05:51:57.791Z,939.27
2017-09-04T05:52:25.604Z,939.27
2017-09-04T05:52:53.396Z,939.25
2017-09-04T05:53:21.505Z,939.24
2017-09-04T05:53:49.876Z,939.23
2017-09-04T05:54:18.028Z,939.25